Tiempo atmosférico en la estación meteorológica de Navalmoral De La Mata, Cáceres (269 m.)



Fecha
DESCASC
Temp. máxima en grados centígrados (hora)
DESCASC
Temp. mínima en grados centígrados (hora)
DESCASC
Temp. media en grados centígrados
DESCASC
Racha de viento máxima en m/sg (hora)
DESCASC
Velocidad máxima media en intervalos de 10 minutos(hora)
DESCASC
Precipitaciones diarias en mm
DESCASC
Precipitaciones de 00:00 a 06:00 en mm
DESCASC
Precipitaciones de 06:00 a 12:00 en mm
DESCASC
Precipitaciones de 12:00 a 18:00 en mm
DESCASC
Precipitaciones de 18:00 a 24:00 en mm
DESCASC
05-04-2020 20.2 (15:50) 11.1 (06:50) 15.7 7.78 (14:00) 4.44 (14:00) 6 0 0.2 0 5.8
04-04-2020 20.4 (14:30) 6.8 (05:10) 13.6 10.28 (10:30) 5.28 (11:20) 0 0 0 0 0
03-04-2020 20.9 (17:20) 4.5 (07:00) 12.7 5.56 (11:20) 3.06 (11:20) 0 0 0 0 0
02-04-2020 19.7 (17:30) 4.8 (00:00) 12.3 6.67 (20:50) 3.89 (20:50) 0 0 0 0 0
01-04-2020 16.3 (16:50) 6.4 (00:00) 11.3 6.39 (18:00) 3.06 (03:10) 0 0 0 0 0
31-03-2020 11.6 (18:00) 4.1 (00:00) 7.9 11.39 (04:50) 5.83 (03:40) 12.4 0.4 4.2 1 6.8
30-03-2020 14.2 (00:50) 5 (00:00) 9.6 13.61 (20:40) 7.22 (17:20) 2.2 0 0 0.6 1.6
29-03-2020 20.9 (16:30) 1.3 (00:00) 11.1 6.67 (18:20) 4.44 (18:30) 0 0 0 0 0
28-03-2020 18 (16:00) 3.1 (00:00) 10.5 11.67 (11:30) 6.39 (11:00) 0 0 0 0 0
27-03-2020 14.2 (15:40) 3.9 (00:00) 9 15 (12:40) 8.33 (11:50) 0 0 0 0 0
26-03-2020 21.7 (16:10) 5.6 (00:00) 13.7 11.67 (15:50) 6.11 (15:50) 0 0 0 0 0
25-03-2020 20.1 (15:30) 7.4 (00:00) 13.8 10.56 (19:20) 5.28 (15:10) 7.8 0 0 1.2 6.6
24-03-2020 18.3 (16:30) 10.1 (00:00) 14.2 15.83 (13:00) 7.5 (12:50) 0 0 0 0 0
23-03-2020 17.3 (16:00) 8.2 (00:00) 12.7 13.06 (14:00) 6.67 (15:10) 1.6 0 0.2 0 1.4
22-03-2020 18.1 (16:10) 5.4 (07:40) 11.8 7.78 (17:10) 4.44 (17:20) 5 0 0 4.6 0.4
21-03-2020 13.7 (17:00) 8.6 (00:00) 11.2 11.94 (01:00) 6.39 (00:40) 9.4 3.2 6 0.2 0
20-03-2020 15.2 (16:10) 10.8 (00:00) 13 11.11 (23:30) 6.11 (23:20) 3.6 0 3 0 0.6
19-03-2020 17.7 (16:00) 9.8 (00:00) 13.8 12.22 (15:40) 6.94 (15:20) 0 0 0 0 0
18-03-2020 18.3 (15:10) 12.8 (00:00) 15.5 17.5 (13:00) 9.72 (11:00) 0 0 0 0 0
17-03-2020 18.7 (17:30) 3.2 (00:00) 11 14.44 (13:30) 8.06 (15:40) 0.2 0.2 0 0 0
16-03-2020 12.5 (13:30) 4.6 (00:00) 8.5 13.61 (02:50) 7.5 (01:40) 2.8 0 0 2.4 0.4
15-03-2020 22.8 (14:40) 6.7 (00:00) 14.7 20.28 (16:40) 7.22 (18:30) 3.6 0 0 3.6 0
14-03-2020 24.6 (16:40) 7.9 (00:00) 16.3 6.67 (11:20) 3.33 (11:20) 0 0 0 0 0
13-03-2020 22.6 (14:50) 7.8 (07:40) 15.2 6.94 (17:40) 3.89 (17:40) 0 0 0 0 0
12-03-2020 26.5 (15:50) 8.8 (00:00) 17.7 5.83 (11:20) 3.61 (11:20) 0 0 0 0 0
11-03-2020 25.2 (15:00) 6.1 (00:00) 15.7 5.83 (00:10) 2.78 (23:59) 0 0 0 0 0
10-03-2020 24.4 (17:20) 5.1 (00:00) 14.7 6.39 (15:00) 3.33 (14:40) 0 0 0 0 0

Gráficas

Temp. máximas Temp. mínimas Temp. medias Precipitaciones Rachas de viento máximas Velocidades máximas media en intervalos de 10 minutos

Datos horarios

Fecha y hora oficial Temperatura (ºC) Velocidad del viento (km/h) Dirección del viento Racha (km/h) Dirección de racha Precipitación (mm) Presión (hPa) Tendencia (hPa) Humedad (%)
2020-04-08 23:00:00 17.9 4 Nordeste 6 Nordeste 0 987.4 0.6 76
2020-04-08 22:00:00 18.5 2 Norte 4 Oeste 0 987.2 0.4 78
2020-04-08 21:00:00 19.9 0 Calma 3 Sur 0 986.7 -0.1 66
2020-04-08 20:00:00 21.7 2 Sudoeste 9 Sur 0 986.8 -0.5 62
2020-04-08 19:00:00 22.8 4 Sur 13 Sudeste 0 986.8 -1.2 48
2020-04-08 18:00:00 22.9 4 Este 15 Sudeste 0 986.8 -1.9 52
2020-04-08 17:00:00 23.2 7 Sudeste 15 Sur 0 987.3 -2.1 50
2020-04-08 16:00:00 22.8 8 Sudeste 21 Este 0 988 -2.4 54
2020-04-08 15:00:00 22.3 7 Sudeste 22 Este 0 988.7 -2.1 57
2020-04-08 14:00:00 20.8 12 Este 25 Este 0 989.4 -1.6 58
2020-04-08 13:00:00 20 14 Este 26 Este 0 990.4 -0.5 61
2020-04-08 12:00:00 18.9 10 Este 21 Este 0 990.8 0.1 67
2020-04-08 11:00:00 17.1 12 Sudeste 26 Nordeste 0 991 0.6 72
2020-04-08 10:00:00 14.7 8 Este 15 Este 0 990.9 0.8 89
2020-04-08 09:00:00 13.1 7 Este 13 Este 0 990.7 0.7 94
2020-04-08 08:00:00 12.1 6 Nordeste 9 Nordeste 0 990.4 0.1 94
2020-04-08 07:00:00 12 3 Nordeste 8 Nordeste 0 990.1 -0.5 94
2020-04-08 06:00:00 12.1 3 Nordeste 7 Sur 0 990 -0.9 93
2020-04-08 05:00:00 12.5 3 Sudeste 11 Este 0 990.3 -0.8 93
2020-04-08 04:00:00 12.2 4 Este 7 Nordeste 0 990.6 -0.6 93
2020-04-08 03:00:00 12.3 4 Norte 6 Nordeste 0 990.9 -0.1 93
2020-04-08 02:00:00 12 4 Este 9 Nordeste 0 991.1 0 93
2020-04-08 01:00:00 12.2 7 Nordeste 10 Nordeste 0 991.2 0.6 92
2020-04-08 00:00:00 12.7 4 Noroeste 9 Noroeste 0 991 0.9 91
2020-04-07 23:00:00 13.9 3 Sudeste 8 Sudeste 0 991.1 0.9 90
2020-04-07 22:00:00 15.2 3 Sur 5 Sudeste 0 990.6 0.7 86
2020-04-07 21:00:00 16.4 4 Sudeste 8 Oeste 0 990.1 0.4 82
2020-04-07 20:00:00 18.2 4 Oeste 14 Oeste 0 990.2 0.4 74
2020-04-07 19:00:00 19.8 7 Oeste 15 Oeste 0 989.9 -0.2 70
2020-04-07 18:00:00 19.7 6 Oeste 14 Oeste 0 989.7 -1.2 70
2020-04-07 17:00:00 19.1 4 Este 18 Nordeste 0 989.8 -1.5 69
2020-04-07 16:00:00 18.7 10 Nordeste 19 Nordeste 0 990.1 -1.4 74
2020-04-07 15:00:00 17.1 6 Este 14 Este 0 990.9 -0.6 87
2020-04-07 14:00:00 16 9 Este 16 Nordeste 0.6 991.3 0 88
2020-04-07 13:00:00 15.5 5 Este 14 Este 0.2 991.5 0.7 89
2020-04-07 12:00:00 15.3 5 Este 12 Este 0.2 991.5 0.9 90
2020-04-07 11:00:00 14.5 7 Este 17 Este 0 991.3 1 91
2020-04-07 10:00:00 14.2 9 Este 17 Este 0.4 990.8 1 93
2020-04-07 09:00:00 13.9 6 Este 13 Nordeste 0.4 990.6 1 93
2020-04-07 08:00:00 13.8 4 Nordeste 9 Este 1.2 990.3 0.5 93
2020-04-07 07:00:00 13.8 6 Este 21 Este 0.4 989.8 -0.2 93
2020-04-07 06:00:00 13.7 6 Este 12 Este 0 989.6 -0.7 93
2020-04-07 05:00:00 13.8 4 Sudeste 13 Sudeste 0.2 989.8 -0.5 93
2020-04-07 04:00:00 13.9 6 Sudeste 13 Sudeste 1.6 990 -0.1 93
2020-04-07 03:00:00 13.9 5 Este 14 Nordeste 0.2 990.3 0.4 92
2020-04-07 02:00:00 13.9 6 Nordeste 10 Este 0 990.3 0.3 92
2020-04-07 01:00:00 14.1 5 Este 11 Sudeste 0 990.1 0 91
2020-04-07 00:00:00 14.4 7 Sudeste 13 Sudeste 0 989.9 0.7 91
2020-04-06 23:00:00 14.7 4 Sudeste 9 Sudeste 0.6 990 1.3 90
2020-04-06 22:00:00 15.2 3 Sudeste 5 Sudeste 0.4 990.1 1.7 89
2020-04-06 21:00:00 15.4 0 Calma 4 Norte 0.2 989.2 0.9 88
2020-04-06 20:00:00 15.9 3 Sur 10 Sur 0 988.7 0.5 84
2020-04-06 19:00:00 16.3 5 Sudoeste 12 Sudoeste 0.4 988.4 -0.4 82
2020-04-06 18:00:00 18 4 Oeste 8 Oeste 0 988.3 -0.7 70
2020-04-06 17:00:00 19.2 3 Noroeste 11 Noroeste 0 988.2 -0.9 60
2020-04-06 16:00:00 19.2 5 Oeste 13 Noroeste 0 988.8 -0.5 60
2020-04-06 15:00:00 18 8 Norte 19 Noroeste 0 989 -0.2 65
2020-04-06 14:00:00 17.7 6 Noroeste 16 Noroeste 0 989.1 0.4 67
2020-04-06 13:00:00 17.7 6 Noroeste 16 Noroeste 0 989.3 1.2 71
2020-04-06 12:00:00 16.7 4 Sudoeste 14 Oeste 0 989.2 1.7 74
2020-04-06 11:00:00 15.7 4 Oeste 12 Oeste 0 988.7 2.1 80
2020-04-06 10:00:00 14.5 4 Oeste 10 Sudoeste 0 988.1 2.4 89
2020-04-06 09:00:00 13.8 5 Sur 10 Oeste 0 987.5 2.2 92
2020-04-06 08:00:00 13.2 7 Oeste 14 Sudoeste 0 986.6 1.4 92
2020-04-06 07:00:00 13.8 5 Oeste 12 Oeste 0 985.7 0.7 92
2020-04-06 06:00:00 14.1 5 Oeste 9 Oeste 0 985.3 0.3 92
2020-04-06 05:00:00 14.3 4 Oeste 7 Oeste 0 985.2 -0.2 92
2020-04-06 04:00:00 14.4 4 Sudeste 6 Sudeste 0 985 -0.2 93
2020-04-06 03:00:00 14.4 3 Nordeste 5 Sur 0.2 985 0.2 92
2020-04-06 02:00:00 14.4 0 Calma 6 Nordeste 2.2 985.4 0.8 92
2020-04-06 01:00:00 14.4 4 Sudeste 11 Sur 0.4 985.2 0.7 92
2020-04-06 00:00:00 14.3 4 Este 9 Este 0.2 984.8 1.1 92
2020-04-05 23:00:00 14.2 5 Este 10 Nordeste 0.8 984.6 2.1 92
2020-04-05 22:00:00 14.5 4 Norte 13 Noroeste 1.8 984.5 2.2 90
2020-04-05 21:00:00 14.8 4 Norte 15 Noroeste 3 983.7 1.4 87
2020-04-05 20:00:00 17.1 4 Nordeste 14 Nordeste 0 982.5 0 71
2020-04-05 19:00:00 18.2 7 Este 17 Nordeste 0 982.3 -0.6 63
2020-04-05 18:00:00 18.8 3 Nordeste 16 Nordeste 0 982.3 -1.5 61
2020-04-05 17:00:00 19.1 5 Este 18 Este 0 982.5 -1.4 53
2020-04-05 16:00:00 20 13 Este 25 Sudeste 0 982.9 -1.8 50
2020-04-05 15:00:00 18.9 11 Este 26 Sudeste 0 983.8 -1.4 49
2020-04-05 14:00:00 18.7 16 Este 28 Este 0 983.9 -1.6 51
2020-04-05 13:00:00 18.4 11 Este 23 Este 0 984.7 -0.6 52
2020-04-05 12:00:00 17.2 12 Este 20 Este 0 985.2 0.1 56
2020-04-05 11:00:00 15.4 10 Este 22 Este 0 985.5 0.9 65
2020-04-05 10:00:00 13.1 10 Este 21 Este 0 985.3 1.9 79
2020-04-05 09:00:00 11.4 9 Este 17 Este 0.2 985.1 1.9 85
2020-04-05 08:00:00 11.2 4 Este 12 Sudeste 0 984.6 1.3 83
2020-04-05 07:00:00 11.4 7 Sudeste 15 Sudeste 0 983.4 0 80
2020-04-05 06:00:00 11.8 7 Sudeste 12 Este 0 983.2 -0.3 79
2020-04-05 05:00:00 12.2 6 Este 10 Este 0 983.3 -0.1 79
2020-04-05 04:00:00 12.6 4 Sudeste 6 Sur 0 983.4 -0.4 80
2020-04-05 03:00:00 13.1 0 Calma 6 Nordeste 0 983.5 0.1 77
2020-04-05 02:00:00 13.3 6 Nordeste 8 Nordeste 0 983.4 0.5 72
2020-04-05 01:00:00 13.5 3 Este 10 Norte 0 983.8 1.3 70
2020-04-05 00:00:00 13.8 5 Norte 9 Norte 0 983.4 1.8 63
2020-04-04 23:00:00 14.4 0 Calma 14 Oeste 0 982.9 1.7 59
2020-04-04 22:00:00 14.4 9 Sudoeste 17 Sudoeste 0 982.5 1.5 59
2020-04-04 21:00:00 16.4 10 Sudoeste 19 Sudoeste 0 981.6 0.7 50
2020-04-04 20:00:00 18.1 10 Sur 17 Sudoeste 0 981.2 0.3 42
2020-04-04 19:00:00 19.5 4 Sudeste 18 Sudeste 0 981 0 43
2020-04-04 18:00:00 19.5 9 Este 21 Este 0 980.9 -0.3 42
2020-04-04 17:00:00 19.4 10 Este 23 Este 0 980.9 -0.8 40
2020-04-04 16:00:00 19.6 13 Este 33 Este 0 981 -1.4 37
2020-04-04 15:00:00 20.1 16 Este 35 Este 0 981.2 -1.9 32
2020-04-04 14:00:00 19.3 19 Este 36 Este 0 981.7 -1.5 42
2020-04-04 13:00:00 18.3 14 Sudeste 36 Sudeste 0 982.4 -0.8 50
2020-04-04 12:00:00 16.4 17 Sudeste 35 Este 0 983.1 0.1 57
2020-04-04 11:00:00 14.2 17 Sudeste 37 Este 0 983.2 0.6 60
2020-04-04 10:00:00 12.3 15 Sudeste 33 Sudeste 0 983.2 1 62
2020-04-04 09:00:00 10.3 14 Sudeste 28 Sudeste 0 983 1 66
2020-04-04 08:00:00 8.1 10 Este 20 Este 0 982.6 0.3 75
2020-04-04 07:00:00 7.1 9 Este 19 Este 0 982.2 -0.3 78
2020-04-04 06:00:00 7.2 9 Este 16 Nordeste 0 982 -0.9 76
2020-04-04 05:00:00 6.9 8 Este 13 Este 0 982.3 -0.8 76
2020-04-04 04:00:00 8.3 6 Sudeste 24 Sudeste 0 982.5 -0.6 69
2020-04-04 03:00:00 8.2 8 Sudeste 14 Este 0 982.9 -0.4 73
2020-04-04 02:00:00 8.7 8 Este 14 Este 0 983.1 -0.2 71
2020-04-04 01:00:00 9.2 9 Este 15 Nordeste 0 983.1 0.2 68
2020-04-04 00:00:00 9.5 8 Este 12 Este 0 983.3 1 71
2020-04-03 23:00:00 11.5 6 Sudeste 11 Nordeste 0 983.3 1.2 61
2020-04-03 22:00:00 13 4 Sudeste 5 Sudeste 0 982.9 0.9 60
2020-04-03 21:00:00 15.7 6 Este 9 Este 0 982.3 0.3 45
2020-04-03 20:00:00 18.4 5 Este 13 Este 0 982.1 -0.3 34
2020-04-03 19:00:00 19.4 9 Este 14 Este 0 982 -0.9 30
2020-04-03 18:00:00 20 9 Este 17 Este 0 982 -1.8 30
2020-04-03 17:00:00 20.5 5 Sudeste 18 Este 0 982.4 -2 27
2020-04-03 16:00:00 19.5 8 Nordeste 17 Este 0 982.9 -2.1 26
2020-04-03 15:00:00 19.2 7 Este 20 Sudeste 0 983.8 -1.6 32
2020-04-03 14:00:00 18.5 9 Sudeste 18 Este 0 984.4 -1 42
2020-04-03 13:00:00 17.6 5 Sudeste 19 Sudeste 0 985 -0.1 51
2020-04-03 12:00:00 15.7 9 Este 20 Nordeste 0 985.4 0.5 58
2020-04-03 11:00:00 13.6 10 Este 19 Este 0 985.4 1.1 64
2020-04-03 10:00:00 10.3 8 Este 13 Este 0 985.1 1.2 78
2020-04-03 09:00:00 7.1 5 Nordeste 12 Este 0 984.9 1.3 92
2020-04-03 08:00:00 4.7 3 Nordeste 9 Este 0 984.3 0.9 93
2020-04-03 07:00:00 4.5 5 Sur 9 Este 0 983.9 0.6 92
2020-04-03 06:00:00 5 4 Este 8 Este 0 983.6 0.2 91
2020-04-03 05:00:00 5.3 5 Nordeste 6 Nordeste 0 983.4 -0.2 91
2020-04-03 04:00:00 6.1 3 Sudeste 7 Sudeste 0 983.3 -0.2 90
2020-04-03 03:00:00 7 3 Este 8 Este 0 983.4 0.2 89
2020-04-03 02:00:00 7.7 4 Este 15 Este 0 983.6 0.7 87
2020-04-03 01:00:00 9 5 Este 14 Nordeste 0 983.5 1.2 82
2020-04-03 00:00:00 9.8 5 Norte 11 Sudeste 0 983.2 2 83
2020-04-02 23:00:00 11.1 8 Este 12 Nordeste 0 982.9 2.4 79
2020-04-02 22:00:00 12.4 8 Este 17 Este 0 982.3 2.3 70
2020-04-02 21:00:00 14.9 12 Este 24 Este 0 981.2 1.4 59
2020-04-02 20:00:00 17.8 2 Sudoeste 17 Oeste 0 980.5 0.7 39
2020-04-02 19:00:00 19.1 6 Oeste 17 Oeste 0 980 0 36
2020-04-02 18:00:00 19.4 5 Oeste 16 Oeste 0 979.8 -0.5 36
2020-04-02 17:00:00 19.2 4 Oeste 19 Sudoeste 0 979.8 -0.6 39
2020-04-02 16:00:00 18.8 7 Oeste 18 Noroeste 0 980 -0.8 43
2020-04-02 15:00:00 18.2 6 Sur 15 Sudoeste 0 980.3 -0.7 36
2020-04-02 14:00:00 17.3 5 Oeste 16 Oeste 0 980.4 -0.4 48
2020-04-02 13:00:00 15.7 4 Oeste 13 Sudoeste 0 980.8 0.5 55
2020-04-02 12:00:00 14.4 6 Sur 13 Sudeste 0 981 1.1 60
2020-04-02 11:00:00 12.4 4 Sudeste 11 Nordeste 0 980.8 1.3 67
2020-04-02 10:00:00 9.9 4 Nordeste 9 Nordeste 0 980.3 1.3 72
2020-04-02 09:00:00 6.7 3 Nordeste 8 Sur 0 979.9 0.9 88
2020-04-02 08:00:00 4.9 8 Sur 10 Sur 0 979.5 0.6 89
2020-04-02 07:00:00 6.1 5 Norte 9 Norte 0 979 0.1 86
2020-04-02 06:00:00 6.8 4 Nordeste 8 Este 0 979 -0.4 86
2020-04-02 05:00:00 6.7 5 Este 13 Este 0 978.9 -1 86
2020-04-02 04:00:00 7.3 8 Nordeste 17 Nordeste 0 978.9 -1.1 85
2020-04-02 03:00:00 8 5 Nordeste 11 Nordeste 0 979.4 -0.8 86
2020-04-02 02:00:00 7.7 7 Sudeste 10 Sudeste 0 979.9 -0.2 87
2020-04-02 01:00:00 8.1 5 Sudeste 10 Sudeste 0 980 0.1 83
2020-04-02 00:00:00 8.5 2 Este 9 Norte 0 980.2 0.9 80
2020-04-01 23:00:00 8.8 3 Noroeste 10 Sudoeste 0 980.1 1.1 79
2020-04-01 22:00:00 10.5 7 Sudoeste 14 Sudoeste 0 979.9 0.8 71
2020-04-01 21:00:00 11.6 8 Sudoeste 21 Sudoeste 0 979.3 0.4 64
2020-04-01 20:00:00 13.7 5 Nordeste 8 Nordeste 0 979 -0.1 48
2020-04-01 19:00:00 14.3 5 Sudeste 18 Sudeste 0 979.1 -0.5 48
2020-04-01 18:00:00 15.6 11 Sur 23 Sur 0 978.9 -1.1 47
2020-04-01 17:00:00 15.5 5 Oeste 17 Oeste 0 979.1 -1.1 43
2020-04-01 16:00:00 14.8 4 Norte 18 Oeste 0 979.6 -1.1 51
2020-04-01 15:00:00 14.9 3 Noroeste 14 Noroeste 0 980 -1 44
2020-04-01 14:00:00 13.6 5 Este 15 Noroeste 0 980.2 -0.7 56
2020-04-01 13:00:00 13.6 4 Oeste 17 Oeste 0 980.7 0 54
2020-04-01 12:00:00 12.9 5 Sudoeste 13 Oeste 0 981 0.8 55
2020-04-01 11:00:00 10.9 3 Noroeste 9 Oeste 0 980.9 1.5 69
2020-04-01 10:00:00 7.9 2 Noroeste 7 Noroeste 0 980.7 1.9 86
2020-04-01 09:00:00 7.2 2 Oeste 8 Oeste 0 980.2 1.5 90
2020-04-01 08:00:00 6.9 6 Sudoeste 9 Sudoeste 0 979.4 0.8 91
2020-04-01 07:00:00 6.9 3 Noroeste 12 Oeste 0 978.8 0 90
2020-04-01 06:00:00 6.6 7 Sudoeste 11 Sudoeste 0 978.7 -0.2 90
2020-04-01 05:00:00 6.6 5 Oeste 18 Oeste 0 978.6 0.1 90
2020-04-01 04:00:00 6.9 10 Sudoeste 21 Sudoeste 0 978.8 0.8 89
2020-04-01 03:00:00 8.2 9 Oeste 18 Oeste 0 978.9 1.6 89
2020-04-01 02:00:00 9.4 5 Noroeste 13 Oeste 0 978.5 1.7 91
2020-04-01 01:00:00 9.4 6 Sudoeste 15 Sudoeste 0 978 2 92
2020-04-01 00:00:00 9.2 5 Sudeste 17 Este 0.6 977.3 2.1 91
2020-03-31 23:00:00 9.5 7 Sudeste 14 Este 0 976.8 2.2 91
2020-03-31 22:00:00 9.9 7 Este 17 Este 0 976 2.1 91
2020-03-31 21:00:00 10.3 9 Este 18 Nordeste 3.6 975.2 2 90
2020-03-31 20:00:00 10.6 3 Norte 20 Este 2.6 974.6 1.4 89
2020-03-31 19:00:00 11.3 13 Este 25 Este 0 973.9 0.6 85
2020-03-31 18:00:00 11.4 13 Este 24 Este 0.6 973.2 -0.3 86
2020-03-31 17:00:00 10.8 12 Este 26 Sudeste 0 973.2 -0.8 80
2020-03-31 16:00:00 10.7 14 Este 31 Este 0 973.3 -0.5 83
2020-03-31 15:00:00 10.5 16 Este 32 Nordeste 0 973.5 -0.4 83
2020-03-31 14:00:00 9.1 10 Este 27 Este 0 974 0 89
2020-03-31 13:00:00 8.2 16 Este 28 Este 0.4 973.8 -0.2 90
2020-03-31 12:00:00 6.9 11 Sudeste 25 Sudeste 0.2 973.9 0 91
2020-03-31 11:00:00 6.1 11 Sudeste 31 Sudeste 0.4 974 0 90
2020-03-31 10:00:00 5.3 14 Este 30 Sudeste 0.8 974 -0.1 91
2020-03-31 09:00:00 4.4 15 Sudeste 31 Este 0.6 973.9 -0.4 91
2020-03-31 08:00:00 4.2 15 Sudeste 33 Este 1 974 -0.6 90
2020-03-31 07:00:00 4.1 16 Sudeste 36 Sudeste 1.2 974.1 -1.1 89
2020-03-31 06:00:00 4.4 16 Sudeste 40 Sudeste 0.2 974.3 -1.7 86
2020-03-31 05:00:00 4.8 21 Sudeste 41 Sudeste 0 974.6 -2.8 81
2020-03-31 04:00:00 4.9 14 Sudeste 40 Este 0 975.2 -2.8 81
2020-03-31 03:00:00 4.7 19 Este 39 Este 0 976 -3.1 83
2020-03-31 02:00:00 4.7 16 Este 36 Este 0 977.4 -1.7 83
2020-03-31 01:00:00 4.7 19 Este 37 Este 0.2 978 -1.7 86
2020-03-31 00:00:00 5 20 Este 40 Este 0.2 979.1 0.1 86
2020-03-30 23:00:00 5.1 21 Este 40 Sudeste 0.4 979.1 0.1 86
2020-03-30 22:00:00 5.5 15 Sudeste 40 Este 0.4 979.7 0.9 85
2020-03-30 21:00:00 5.6 23 Este 49 Este 0.2 979 0 83
2020-03-30 20:00:00 6 18 Sudeste 41 Sudeste 0 979 -0.2 82
2020-03-30 19:00:00 6.8 19 Este 40 Este 0.4 978.8 -0.5 83
2020-03-30 18:00:00 7.7 18 Este 45 Sudeste 0.6 979 -0.4 80
2020-03-30 17:00:00 9.4 21 Este 41 Sudeste 0 979.2 -0.8 69
2020-03-30 16:00:00 11.5 17 Sudeste 35 Sudeste 0 979.3 -0.9 57
2020-03-30 15:00:00 13.2 15 Este 37 Este 0 979.4 -1.4 48
2020-03-30 14:00:00 14 20 Este 40 Este 0 980 -1.2 49
2020-03-30 13:00:00 13.4 20 Este 39 Sudeste 0 980.2 -0.6 48
2020-03-30 12:00:00 13.7 20 Este 45 Este 0 980.8 0 50
2020-03-30 11:00:00 13.7 19 Sudeste 37 Este 0 981.2 0.8 52
2020-03-30 10:00:00 12.3 16 Este 29 Este 0 980.8 0.7 56
2020-03-30 09:00:00 10.9 9 Este 18 Este 0 980.8 0.8 69
2020-03-30 08:00:00 10.3 4 Este 12 Sudeste 0 980.4 0.3 80
2020-03-30 07:00:00 10.8 7 Sudeste 12 Sudeste 0 980.1 -0.6 77
2020-03-30 06:00:00 11.1 5 Nordeste 18 Oeste 0 980 -1.3 74
2020-03-30 05:00:00 12 11 Sudoeste 17 Sudoeste 0 980.1 -1.4 70
2020-03-30 04:00:00 12.2 6 Oeste 13 Sudoeste 0 980.7 -1.4 71
2020-03-30 03:00:00 12.6 5 Oeste 25 Sudoeste 0 981.3 -1.2 69
2020-03-30 02:00:00 14 17 Sudoeste 29 Oeste 0 981.5 -1.3 61
2020-03-30 01:00:00 14.2 14 Sudoeste 24 Sudoeste 0 982.1 -0.9 58
2020-03-30 00:00:00 13.3 12 Sudoeste 20 Sudoeste 0 982.5 -0.3 61
2020-03-29 23:00:00 14.2 10 Oeste 15 Oeste 0 982.8 -0.1 56
2020-03-29 22:00:00 14.6 7 Oeste 12 Oeste 0 983 0 56
2020-03-29 21:00:00 15.2 5 Oeste 12 Oeste 0 982.8 -0.3 53
2020-03-29 20:00:00 17.9 6 Oeste 20 Noroeste 0 982.9 -0.6 43
2020-03-29 19:00:00 18.7 11 Oeste 24 Oeste 0 983 -1.1 40
2020-03-29 18:00:00 20.2 6 Oeste 22 Oeste 0 983.1 -1.9 34
2020-03-29 17:00:00 20.8 4 Noroeste 19 Oeste 0 983.5 -2.3 29
2020-03-29 16:00:00 20.4 6 Oeste 24 Oeste 0 984.1 -2.3 34
2020-03-29 15:00:00 19.5 5 Oeste 17 Noroeste 0 985 -2.1 38
2020-03-29 14:00:00 18.4 6 Oeste 14 Oeste 0 985.8 -1.7 40
2020-03-29 13:00:00 16.1 3 Este 9 Nordeste 0 986.4 -1 51
2020-03-29 12:00:00 12.9 3 Este 10 Sudeste 0 987.1 -0.2 63
2020-03-29 11:00:00 9.7 3 Nordeste 8 Este 0 987.5 0.6 69
2020-03-29 10:00:00 7.6 3 Este 7 Este 0 987.4 0.8 77
2020-03-29 09:00:00 3.3 0 Calma 5 Norte 0 987.3 0.7 92
2020-03-29 08:00:00 1.4 0 Calma 5 Sur 0 986.9 0.4 91
2020-03-29 07:00:00 2.1 2 Sudeste 4 Oeste 0 986.6 -0.1 90
2020-03-29 06:00:00 2.7 0 Calma 6 Sudeste 0 986.6 -0.3 88
2020-03-29 05:00:00 3.4 3 Sur 9 Sudeste 0 986.5 -0.5 87
2020-03-29 03:00:00 4.9 4 Sudeste 9 Sudeste 0 986.9 0.1 81
2020-03-29 01:00:00 5.5 4 Sudeste 8 Sur 0 987 0.4 80
2020-03-29 00:00:00 6.6 4 Nordeste 10 Este 0 987 0.7 76
2020-03-28 23:00:00 7.5 6 Este 9 Sudeste 0 986.8 1.3 73
2020-03-28 22:00:00 8.2 5 Sudeste 8 Sudeste 0 986.6 1.7 75
2020-03-28 21:00:00 9.8 0 Calma 8 Norte 0 986.3 1.7 64
2020-03-28 20:00:00 12.6 0 Calma 8 Este 0 985.5 1 47
2020-03-28 19:00:00 15.5 4 Este 15 Nordeste 0 984.9 0.4 40
2020-03-28 18:00:00 17 8 Este 15 Sudeste 0 984.6 -0.3 31
2020-03-28 17:00:00 17.4 9 Este 25 Este 0 984.5 -0.9 33
2020-03-28 16:00:00 17.7 13 Este 29 Este 0 984.5 -1.4 35
2020-03-28 15:00:00 17.1 20 Este 35 Sudeste 0 984.9 -1.4 33
2020-03-28 14:00:00 16.4 14 Este 32 Este 0 985.4 -1.1 44
2020-03-28 13:00:00 15.9 14 Sudeste 38 Sudeste 0 985.9 -0.7 43
2020-03-28 12:00:00 14.2 20 Este 42 Sudeste 0 986.3 0 45
2020-03-28 11:00:00 12.8 23 Sudeste 39 Sudeste 0 986.5 0.6 52
2020-03-28 10:00:00 11 15 Sudeste 27 Este 0 986.6 1.3 61
2020-03-28 09:00:00 7.7 5 Nordeste 15 Este 0 986.3 1.8 74
2020-03-28 08:00:00 4.4 7 Nordeste 16 Este 0 985.9 1.6 86
2020-03-28 07:00:00 3.3 8 Este 20 Este 0 985.3 1 87
2020-03-28 06:00:00 3.5 6 Sudeste 12 Sudeste 0 984.5 0.5 87
2020-03-28 05:00:00 3.7 7 Nordeste 13 Este 0 984.3 0.1 86
2020-03-28 04:00:00 4.4 8 Este 17 Este 0 984.3 0.2 84
2020-03-28 03:00:00 5.1 12 Este 20 Este 0 984 0.3 81
2020-03-28 02:00:00 5.4 9 Este 14 Nordeste 0 984.2 0.9 81
2020-03-28 01:00:00 4.4 7 Nordeste 10 Nordeste 0 984.1 1.4 83
2020-03-28 00:00:00 5.3 6 Sudeste 10 Este 0 983.7 1.6 79
2020-03-27 23:00:00 6.1 5 Este 9 Este 0 983.3 2 74
2020-03-27 22:00:00 7.1 5 Este 17 Este 0 982.7 2.2 69
2020-03-27 21:00:00 8.6 7 Este 22 Sudeste 0 982.1 2 63
2020-03-27 20:00:00 10.1 11 Sudeste 23 Sudeste 0 981.3 1.5 54
2020-03-27 19:00:00 11.9 10 Sudeste 34 Este 0 980.5 0.6 47
2020-03-27 18:00:00 13 16 Este 41 Este 0 980.1 0.1 40
2020-03-27 17:00:00 13.2 21 Este 42 Sudeste 0 979.8 -0.4 44
2020-03-27 16:00:00 13.3 21 Sudeste 44 Este 0 979.9 -0.4 43
2020-03-27 15:00:00 13.1 26 Este 53 Este 0 980 0 47
2020-03-27 14:00:00 13.2 26 Este 49 Este 0 980.2 0.6 50
2020-03-27 13:00:00 12.4 24 Este 54 Sudeste 0 980.3 1.1 52
2020-03-27 12:00:00 11.8 27 Este 53 Sudeste 0 980 1.3 52
2020-03-27 11:00:00 11.4 26 Este 51 Sudeste 0 979.6 1.4 49
2020-03-27 10:00:00 11.2 24 Este 45 Sudeste 0 979.2 1.7 50
2020-03-27 09:00:00 8.6 9 Este 18 Este 0 978.7 1.8 63
2020-03-27 08:00:00 4.9 6 Nordeste 12 Este 0 978.2 1.7 73
2020-03-27 07:00:00 4 6 Nordeste 14 Nordeste 0 977.5 1.1 75
2020-03-27 06:00:00 4 7 Este 12 Sudeste 0 976.9 0.2 77
2020-03-27 05:00:00 4.9 7 Este 12 Este 0 976.5 -0.4 74
2020-03-27 04:00:00 6.4 6 Este 14 Este 0 976.4 -0.5 67
2020-03-27 03:00:00 8.7 9 Este 26 Este 0 976.7 -0.2 55
2020-03-27 02:00:00 9.7 13 Este 30 Este 0 976.9 0.5 53
2020-03-27 01:00:00 10.5 14 Nordeste 30 Este 0 976.9 0.8 50
2020-03-27 00:00:00 10.1 10 Nordeste 21 Nordeste 0 976.9 1.1 54
2020-03-26 23:00:00 9.9 10 Nordeste 13 Nordeste 0 976.4 1.1 55
2020-03-26 22:00:00 11.4 9 Sudeste 19 Este 0 976.1 1.1 53
2020-03-26 21:00:00 11.8 3 Sudoeste 7 Norte 0 975.8 1.2 57
2020-03-26 20:00:00 16 4 Norte 10 Noroeste 0 975.3 0.9 31
2020-03-26 19:00:00 18.3 4 Noroeste 30 Noroeste 0 975 0.3 34
2020-03-26 18:00:00 20.6 11 Noroeste 36 Noroeste 0 974.6 -0.6 24
2020-03-26 17:00:00 21.4 13 Oeste 37 Oeste 0 974.4 -1.8 25
2020-03-26 16:00:00 21.5 14 Oeste 42 Oeste 0 974.7 -2.4 25
2020-03-26 15:00:00 21.2 15 Oeste 28 Oeste 0 975.2 -2.6 30
2020-03-26 14:00:00 19.7 4 Noroeste 21 Oeste 0 976.2 -2 41
2020-03-26 13:00:00 18.3 3 Noroeste 11 Noroeste 0 977.1 -1.5 48
2020-03-26 12:00:00 16.3 3 Oeste 11 Oeste 0 977.8 -0.8 56
2020-03-26 11:00:00 14.6 3 Norte 11 Nordeste 0 978.2 -0.5 69
2020-03-26 10:00:00 12.5 4 Nordeste 9 Nordeste 0 978.6 0.3 77
2020-03-26 09:00:00 9.9 3 Este 10 Este 0 978.6 0.7 93
2020-03-26 08:00:00 6.5 2 Norte 13 Nordeste 0 978.7 0.9 93
2020-03-26 07:00:00 5.8 4 Sudoeste 7 Sudoeste 0 978.3 -0.1 92
2020-03-26 06:00:00 6.4 3 Noroeste 11 Norte 0 977.9 -0.9 92
2020-03-26 05:00:00 7.4 4 Sur 11 Nordeste 0 977.8 -1.5 90
2020-03-26 04:00:00 8.8 5 Nordeste 13 Este 0 978.4 -1.4 88
2020-03-26 03:00:00 9.9 7 Sudoeste 17 Oeste 0 978.8 -1 84
2020-03-26 02:00:00 10.6 7 Sudoeste 20 Sudoeste 0 979.3 -1 85
2020-03-26 01:00:00 11.6 5 Norte 27 Sudoeste 0 979.8 -0.9 85
2020-03-26 00:00:00 12 14 Oeste 23 Oeste 0.2 979.8 -1.6 89
2020-03-25 23:00:00 11.6 6 Oeste 22 Sudoeste 0 980.3 -0.6 89
2020-03-25 22:00:00 12.2 14 Sudoeste 27 Sudoeste 1.6 980.7 0.2 87
2020-03-25 21:00:00 12.2 11 Norte 26 Sudoeste 0 981.4 1.1 87
2020-03-25 20:00:00 12.8 16 Sudoeste 38 Nordeste 4.6 980.9 0.3 81
2020-03-25 19:00:00 16.1 7 Este 18 Noroeste 0.2 980.5 -0.4 64
2020-03-25 18:00:00 18.7 7 Noroeste 23 Noroeste 0 980.3 -1.1 48
2020-03-25 17:00:00 16.7 8 Sudoeste 30 Noroeste 1.2 980.6 -1.9 69
2020-03-25 16:00:00 19.4 12 Oeste 33 Oeste 0 980.9 -2.4 47
2020-03-25 15:00:00 18.9 12 Oeste 30 Sudoeste 0 981.4 -2.8 48
2020-03-25 14:00:00 18.9 13 Oeste 26 Oeste 0 982.5 -2 51
2020-03-25 13:00:00 17.8 13 Oeste 27 Oeste 0 983.3 -1.4 53
2020-03-25 12:00:00 16.6 10 Oeste 20 Oeste 0 984.2 -0.5 51
2020-03-25 11:00:00 15.4 5 Sudoeste 12 Sudoeste 0 984.5 -0.3 54
2020-03-25 10:00:00 14 4 Este 11 Sudeste 0 984.7 0 54
2020-03-25 09:00:00 11 6 Este 10 Este 0 984.7 0.3 74
2020-03-25 08:00:00 8.1 6 Este 8 Este 0 984.8 0.5 82
2020-03-25 07:00:00 7.6 5 Nordeste 9 Este 0 984.7 0.5 82
2020-03-25 06:00:00 9.1 2 Este 11 Este 0 984.4 -0.1 78
2020-03-25 05:00:00 9.9 6 Sudeste 13 Sudeste 0 984.3 -0.5 76
2020-03-25 04:00:00 11 5 Este 21 Este 0 984.2 -0.4 70
2020-03-25 03:00:00 11.2 6 Este 11 Este 0 984.5 0.1 77
2020-03-25 02:00:00 11.6 4 Este 9 Este 0 984.8 0.7 75
2020-03-25 01:00:00 11.6 5 Este 13 Este 0 984.6 1.2 73
2020-03-25 00:00:00 11.2 8 Este 12 Este 0 984.4 1.4 76
2020-03-24 23:00:00 10.8 6 Nordeste 10 Nordeste 0 984.1 1.6 79
2020-03-24 22:00:00 12.4 7 Este 15 Este 0 983.4 1.1 71
2020-03-24 21:00:00 13.1 6 Este 17 Este 0 983 1.1 67
2020-03-24 20:00:00 14.7 10 Este 17 Este 0 982.5 0.9 59
2020-03-24 19:00:00 15.8 10 Este 32 Este 0 982.3 0.8 54
2020-03-24 18:00:00 16.9 15 Este 31 Este 0 981.9 0.1 50
2020-03-24 17:00:00 17.8 15 Este 39 Este 0 981.6 -0.5 48
2020-03-24 16:00:00 17.4 19 Este 39 Este 0 981.5 -1.1 49
2020-03-24 15:00:00 17.3 20 Este 42 Este 0 981.8 -1 49
2020-03-24 14:00:00 17 21 Este 47 Este 0 982.1 -0.7 48
2020-03-24 13:00:00 16.8 24 Este 57 Este 0 982.6 0 46
2020-03-24 12:00:00 16.9 22 Este 53 Este 0 982.8 0.2 48
2020-03-24 11:00:00 15.5 21 Este 46 Este 0 982.8 0.1 55
2020-03-24 10:00:00 15.9 23 Este 41 Este 0 982.6 0.3 54
2020-03-24 09:00:00 13.1 19 Este 40 Este 0 982.6 0.7 67
2020-03-24 08:00:00 12.3 19 Este 38 Este 0 982.7 0.7 70
2020-03-24 07:00:00 12.6 18 Este 38 Este 0 982.3 0 68
2020-03-24 06:00:00 12.7 8 Este 22 Este 0 981.9 -0.6 67
2020-03-24 05:00:00 13 11 Este 28 Este 0 982 -0.7 66
2020-03-24 04:00:00 12.7 13 Este 28 Este 0 982.3 -0.5 69
2020-03-24 03:00:00 12.8 13 Este 36 Este 0 982.5 -0.4 68
2020-03-24 02:00:00 12.6 9 Este 28 Este 0 982.7 -0.1 71
2020-03-24 01:00:00 12.2 13 Este 26 Este 0 982.8 0.4 73
2020-03-24 00:00:00 10.1 7 Sudeste 13 Este 0 982.9 0.8 85
2020-03-23 23:00:00 9.8 8 Sudeste 15 Este 0.2 982.8 0.7 87
2020-03-23 22:00:00 10.1 7 Sudeste 14 Sudeste 0 982.4 1.5 86
2020-03-23 21:00:00 11.3 9 Sudeste 35 Sudeste 0.6 982.1 1.8 82
2020-03-23 20:00:00 12.3 14 Sudeste 45 Este 0.6 982.1 1.6 77
2020-03-23 19:00:00 16.1 18 Este 33 Este 0 980.9 0.4 50
2020-03-23 18:00:00 16.4 17 Este 40 Este 0 980.3 -0.9 46
2020-03-23 17:00:00 16.5 19 Este 41 Este 0 980.5 -1.6 46
2020-03-23 16:00:00 16.9 21 Este 40 Nordeste 0 980.5 -1.8 50
2020-03-23 15:00:00 16.1 21 Este 42 Este 0 981.2 -1.7 53
2020-03-23 14:00:00 15.2 21 Este 47 Este 0 982.1 -0.8 58
2020-03-23 13:00:00 16.6 15 Sudeste 38 Este 0 982.3 -0.9 56
2020-03-23 12:00:00 14.5 14 Este 45 Este 0.2 982.9 -0.1 61
2020-03-23 11:00:00 13.9 12 Este 31 Este 0 982.9 0.4 67
2020-03-23 10:00:00 12.7 12 Este 22 Sudeste 0 983.2 1.2 80
2020-03-23 09:00:00 10.9 7 Nordeste 12 Este 0 983 1.4 90
2020-03-23 08:00:00 8.3 3 Nordeste 17 Este 0 982.5 1.1 93
2020-03-23 07:00:00 8.9 3 Nordeste 5 Nordeste 0 982 0.9 93
2020-03-23 06:00:00 9.2 0 Calma 6 Noroeste 0 981.6 0.4 92
2020-03-23 05:00:00 9.2 2 Noroeste 6 Este 0 981.4 0 92
2020-03-23 04:00:00 9.6 5 Este 12 Este 0 981.1 -0.3 92
2020-03-23 03:00:00 9.7 6 Nordeste 10 Este 0 981.2 -0.4 93
2020-03-23 02:00:00 9.7 0 Calma 8 Norte 0 981.4 0.1 93
2020-03-23 01:00:00 9.5 5 Nordeste 10 Este 0 981.4 0.3 93
2020-03-23 00:00:00 10 7 Este 11 Este 0 981.6 0.8 93
2020-03-22 23:00:00 9.8 4 Este 6 Nordeste 0 981.3 1.3 92
2020-03-22 22:00:00 9.8 3 Sur 10 Sur 0 981.1 1.3 92
2020-03-22 21:00:00 9.7 4 Sudoeste 8 Este 0.2 980.8 1 91
2020-03-22 20:00:00 10.8 3 Noroeste 10 Norte 0 980 1.4 90
2020-03-22 19:00:00 11.3 3 Norte 7 Oeste 0.2 979.8 1.4 90
2020-03-22 18:00:00 11 5 Este 28 Nordeste 4.6 979.8 1.1 89
2020-03-22 17:00:00 15.8 5 Sudeste 13 Sur 0 978.6 -0.8 54
2020-03-22 16:00:00 17.9 4 Oeste 17 Sur 0 978.4 -1.5 48
2020-03-22 15:00:00 16.6 8 Sudeste 21 Sur 0 978.7 -1.8 51
2020-03-22 14:00:00 16.6 4 Sudeste 15 Este 0 979.4 -1.3 55
2020-03-22 13:00:00 14.7 8 Nordeste 26 Este 0 979.9 -0.8 59
2020-03-22 12:00:00 13.9 12 Este 23 Sudeste 0 980.5 -0.1 63
2020-03-22 11:00:00 13 14 Sudeste 26 Sudeste 0 980.7 0.7 65
2020-03-22 10:00:00 11.2 10 Este 23 Este 0 980.7 1.2 72
2020-03-22 09:00:00 8.4 7 Nordeste 18 Nordeste 0 980.6 1.4 87
2020-03-22 08:00:00 5.8 6 Nordeste 8 Nordeste 0 980 1.1 91
2020-03-22 07:00:00 5.9 3 Sudeste 14 Sudeste 0 979.5 0.5 89
2020-03-22 06:00:00 6.3 4 Este 12 Nordeste 0 979.2 0.2 89
2020-03-22 05:00:00 7 8 Nordeste 11 Nordeste 0 978.9 -0.5 89
2020-03-22 04:00:00 7 7 Nordeste 19 Este 0 979 -0.5 88
2020-03-22 03:00:00 8.1 5 Este 11 Nordeste 0 979 -0.6 85
2020-03-22 02:00:00 9.2 6 Nordeste 13 Nordeste 0 979.4 -0.4 83
2020-03-22 01:00:00 9.5 7 Este 15 Este 0 979.5 -0.1 80
2020-03-22 00:00:00 9.6 10 Este 19 Este 0 979.6 0.5 77
2020-03-21 23:00:00 9.1 6 Este 13 Sudeste 0 979.8 1.3 81
2020-03-21 22:00:00 8.6 3 Sur 10 Este 0 979.6 1.5 80
2020-03-21 21:00:00 9.8 6 Este 14 Nordeste 0 979.1 1.3 76
2020-03-21 20:00:00 11.1 6 Este 13 Este 0 978.5 0.3 72
2020-03-21 19:00:00 12.3 10 Este 25 Este 0 978.1 -0.7 65
2020-03-21 18:00:00 13 16 Este 29 Este 0 977.8 -1.7 62
2020-03-21 17:00:00 13.6 13 Este 26 Este 0 978.2 -1.9 56
2020-03-21 16:00:00 13.3 14 Nordeste 24 Este 0 978.8 -1.9 60
2020-03-21 15:00:00 11.8 12 Este 22 Este 0 979.5 -1.5 69
2020-03-21 14:00:00 10.5 9 Este 16 Este 0 980.1 -1.1 77
2020-03-21 13:00:00 10.3 6 Este 12 Este 0.2 980.7 -0.4 81
2020-03-21 12:00:00 9.8 6 Nordeste 18 Este 0.4 981 0.4 87
2020-03-21 11:00:00 9 4 Nordeste 16 Nordeste 1.6 981.2 1.4 90
2020-03-21 10:00:00 9 3 Este 14 Nordeste 1.6 981.1 2.3 90
2020-03-21 09:00:00 9.1 2 Oeste 14 Oeste 1.4 980.6 2 89
2020-03-21 08:00:00 9.5 6 Sudoeste 31 Sudoeste 0.2 979.8 1.4 91
2020-03-21 07:00:00 9.7 8 Sur 32 Sudeste 0.8 978.8 -0.1 89
2020-03-21 06:00:00 9.8 8 Sur 28 Este 0.4 978.6 -1.2 87
2020-03-21 05:00:00 9.9 13 Este 30 Este 0.8 978.4 -1.6 86
2020-03-21 04:00:00 10.3 17 Este 33 Sudeste 0.2 978.9 -1 84
2020-03-21 03:00:00 10.5 5 Sur 20 Sudeste 1.4 979.8 -0.4 87
2020-03-21 02:00:00 11.5 14 Este 41 Este 0.4 980 0 78
2020-03-21 01:00:00 12.6 23 Este 43 Este 0 979.9 -0.4 69
2020-03-21 00:00:00 13 21 Este 40 Este 0 980.2 -0.2 69
2020-03-20 23:00:00 13.2 18 Este 36 Este 0 980 -0.1 69
2020-03-20 22:00:00 12.6 13 Este 24 Este 0 980.3 0 75
2020-03-20 21:00:00 12.8 6 Este 23 Sudoeste 0 980.4 0.3 80
2020-03-20 20:00:00 13.3 11 Este 23 Este 0.6 980.1 -0.7 75
2020-03-20 19:00:00 14.6 13 Este 29 Este 0 980.3 -0.9 64
2020-03-20 18:00:00 14.6 14 Este 30 Este 0 980.1 -2.2 66
2020-03-20 17:00:00 14.9 13 Este 34 Este 0 980.8 -2 65
2020-03-20 16:00:00 15 17 Este 29 Este 0 981.2 -2.3 66
2020-03-20 15:00:00 13.9 10 Este 26 Este 0 982.3 -1.3 72
2020-03-20 14:00:00 13.5 14 Este 25 Nordeste 0 982.8 -1.2 74
2020-03-20 13:00:00 13 13 Este 37 Este 0 983.5 -0.1 75
2020-03-20 12:00:00 12.5 17 Este 33 Este 0 983.6 0.1 79
2020-03-20 11:00:00 11.9 10 Este 26 Este 0.6 984 0.8 84
2020-03-20 10:00:00 11.8 10 Sudeste 23 Sudeste 0 983.6 0.7 80
2020-03-20 09:00:00 11.1 9 Sudeste 31 Este 2.2 983.5 0.7 86
2020-03-20 08:00:00 11.8 13 Este 31 Este 0.2 983.2 0.4 76
2020-03-20 07:00:00 12.3 14 Este 26 Sudeste 0 982.9 0.1 72
2020-03-20 06:00:00 12 14 Este 31 Sudeste 0 982.8 -0.5 75
2020-03-20 05:00:00 12.4 13 Sudeste 26 Sudeste 0 982.8 -0.7 73
2020-03-20 04:00:00 12.4 14 Este 25 Sudeste 0 982.8 -0.8 72
2020-03-20 03:00:00 13.1 13 Este 32 Este 0 983.3 -0.6 68
2020-03-20 02:00:00 13.5 16 Este 37 Este 0 983.5 -0.3 66
2020-03-20 01:00:00 13.7 15 Este 30 Este 0 983.6 -0.3 65
2020-03-20 00:00:00 14.2 11 Este 25 Este 0 983.9 -0.1 64
2020-03-19 23:00:00 14.5 12 Este 24 Este 0 983.8 0 62
2020-03-19 22:00:00 14.1 11 Este 21 Este 0 983.9 0.1 63
2020-03-19 21:00:00 13.8 8 Este 12 Este 0 984 0.2 65
2020-03-19 20:00:00 14.1 8 Este 14 Nordeste 0 983.8 -0.4 65
2020-03-19 19:00:00 15.6 6 Nordeste 22 Este 0 983.8 -1.1 59
2020-03-19 18:00:00 16.7 11 Este 28 Este 0 983.8 -1.7 53
2020-03-19 17:00:00 17.3 18 Este 37 Este 0 984.2 -2.2 49
2020-03-19 16:00:00 17.6 21 Este 44 Este 0 984.9 -2.4 48
2020-03-19 15:00:00 16.7 22 Este 39 Este 0 985.5 -2.5 53
2020-03-19 14:00:00 16.4 17 Este 33 Este 0 986.4 -2.1 53
2020-03-19 13:00:00 16.3 17 Este 34 Este 0 987.3 -1.7 52
2020-03-19 12:00:00 16.3 18 Este 39 Sudeste 0 988 -0.8 53
2020-03-19 11:00:00 15.5 18 Este 32 Este 0 988.5 0.1 54
2020-03-19 10:00:00 13.4 17 Este 30 Sudeste 0 989 0.5 63
2020-03-19 09:00:00 11.6 13 Sudeste 30 Este 0 988.8 0 68
2020-03-19 08:00:00 10.3 10 Este 21 Sudeste 0 988.4 -0.4 70
2020-03-19 07:00:00 9.8 8 Este 18 Sudeste 0 988.5 0 68
2020-03-19 06:00:00 10.5 9 Sudeste 21 Sudeste 0 988.8 0.3 68
2020-03-19 05:00:00 11.3 5 Sudeste 22 Este 0 988.8 -0.3 63
2020-03-19 04:00:00 12.3 12 Este 22 Este 0 988.5 -0.8 60
2020-03-19 03:00:00 13 15 Este 26 Este 0 988.5 -1.4 61
2020-03-19 02:00:00 12.7 8 Este 22 Nordeste 0 989.1 -0.9 70
2020-03-19 01:00:00 13.6 13 Este 26 Este 0 989.3 -0.7 68
2020-03-19 00:00:00 13.4 9 Este 27 Este 0 989.9 0 69
2020-03-18 23:00:00 14.8 14 Sudeste 28 Sudeste 0 990 0.3 63
2020-03-18 22:00:00 14.7 8 Sudeste 19 Sudeste 0 990 0.8 62
2020-03-18 21:00:00 15 9 Sudeste 18 Sudeste 0 989.9 0.5 59
2020-03-18 20:00:00 16.3 6 Sudeste 27 Este 0 989.7 0.4 51
2020-03-18 19:00:00 16.7 14 Este 33 Este 0 989.2 -0.4 54
2020-03-18 18:00:00 16.9 13 Este 36 Sudeste 0 989.4 -0.6 56
2020-03-18 17:00:00 17.4 19 Sudeste 44 Sudeste 0 989.3 -1.2 52
2020-03-18 16:00:00 17.5 22 Este 51 Sudeste 0 989.6 -1.2 49
2020-03-18 15:00:00 18.2 26 Este 51 Sudeste 0 990 -1.6 50
2020-03-18 14:00:00 17 27 Este 56 Este 0 990.5 -1.6 48
2020-03-18 13:00:00 16.9 29 Este 63 Este 0 990.8 -1.1 49
2020-03-18 12:00:00 16.5 26 Este 60 Este 0 991.6 -0.3 51
2020-03-18 11:00:00 16.4 35 Este 61 Este 0 992.1 0.4 50
2020-03-18 10:00:00 15.8 34 Este 58 Este 0 991.9 0.4 53
2020-03-18 09:00:00 14.4 26 Este 60 Este 0 991.9 0.2 59
2020-03-18 08:00:00 13.1 27 Este 59 Sudeste 0 991.7 0 66
2020-03-18 07:00:00 12.9 24 Este 49 Sudeste 0 991.5 0 68
2020-03-18 06:00:00 13 27 Este 49 Sudeste 0 991.7 0 68
2020-03-18 05:00:00 13.1 26 Este 47 Sudeste 0 991.7 0.4 68
2020-03-18 04:00:00 13.8 28 Este 53 Sudeste 0 991.5 0.4 66
2020-03-18 03:00:00 14.5 23 Este 46 Este 0 991.7 -0.3 65
2020-03-18 02:00:00 14.4 15 Este 33 Este 0 991.3 -1.2 67
2020-03-18 01:00:00 14.4 15 Este 30 Este 0 991.1 -1.1 67
2020-03-18 00:00:00 14.4 18 Este 32 Este 0 992 0.5 66
2020-03-17 23:00:00 14.2 10 Este 26 Este 0 992.5 2.1 69
2020-03-17 22:00:00 15.3 14 Este 33 Este 0 992.2 2.5 65
2020-03-17 21:00:00 15.1 15 Este 26 Este 0 991.5 2.2 65
2020-03-17 20:00:00 16 12 Este 31 Este 0 990.4 1.4 60
2020-03-17 19:00:00 17.8 17 Este 38 Este 0 989.7 0.3 51
2020-03-17 18:00:00 18.7 19 Este 43 Este 0 989.3 -0.2 48
2020-03-17 17:00:00 18.1 25 Este 46 Este 0 989 -1.1 48
2020-03-17 16:00:00 17.7 25 Este 50 Este 0 989.4 -1.3 45
2020-03-17 15:00:00 17.2 26 Este 49 Sudeste 0 989.5 -1 44
2020-03-17 14:00:00 17.2 21 Sudeste 52 Este 0 990.1 -0.7 47
2020-03-17 13:00:00 15.6 24 Este 50 Sudeste 0 990.7 -0.2 53
2020-03-17 12:00:00 14.8 22 Este 44 Sudeste 0 990.5 0.4 56
2020-03-17 11:00:00 12.6 20 Este 38 Sudeste 0 990.8 1.1 66
2020-03-17 10:00:00 10.6 10 Este 21 Este 0 990.9 1.9 75
2020-03-17 09:00:00 6.7 12 Nordeste 21 Nordeste 0 990.1 2 82
2020-03-17 08:00:00 3.8 7 Este 26 Este 0 989.7 2.2 90
2020-03-17 07:00:00 3.6 11 Nordeste 17 Este 0 989 2.1 90
2020-03-17 06:00:00 3.6 8 Este 23 Este 0 988.1 1 90
2020-03-17 05:00:00 4.5 12 Sudeste 25 Sudeste 0.2 987.5 0.5 88
2020-03-17 04:00:00 3.6 8 Sudeste 19 Sudeste 0 986.9 0.2 90
2020-03-17 03:00:00 3.5 6 Este 13 Este 0 987.1 0.4 90
2020-03-17 02:00:00 3.7 6 Este 10 Este 0 987 1.1 91
2020-03-17 01:00:00 4.1 7 Este 13 Sudeste 0 986.7 1.4 90
2020-03-17 00:00:00 4.6 7 Este 12 Este 0 986.7 1.8 89
2020-03-16 23:00:00 5.1 6 Sudeste 8 Sur 0 985.9 1.8 89
2020-03-16 22:00:00 6.1 2 Sur 9 Nordeste 0.2 985.3 2.2 88
2020-03-16 21:00:00 6.4 7 Nordeste 14 Norte 0 984.9 2.6 88
2020-03-16 20:00:00 6.3 2 Este 32 Sudeste 0.2 984.1 2.2 86
2020-03-16 19:00:00 7.3 5 Nordeste 14 Norte 0 983.1 1.5 84
2020-03-16 18:00:00 7.3 11 Norte 25 Nordeste 0.6 982.3 1 83
2020-03-16 17:00:00 8.2 6 Norte 24 Este 1 981.9 0.8 71
2020-03-16 16:00:00 8.3 22 Nordeste 44 Nordeste 0.8 981.6 0.4 66
2020-03-16 15:00:00 8.6 21 Este 42 Este 0 981.3 0.5 67
2020-03-16 14:00:00 11.5 15 Nordeste 31 Nordeste 0 981.1 0.5 46
2020-03-16 13:00:00 10.6 10 Nordeste 36 Nordeste 0 981.2 0.7 50
2020-03-16 12:00:00 10.8 17 Norte 38 Nordeste 0 980.8 0.7 52
2020-03-16 11:00:00 9.9 13 Noroeste 33 Noroeste 0 980.6 1.1 56
2020-03-16 10:00:00 9.6 8 Noroeste 26 Norte 0 980.5 1.5 55
2020-03-16 09:00:00 8.8 8 Noroeste 26 Noroeste 0 980.1 1.5 55
2020-03-16 08:00:00 6.5 13 Oeste 38 Oeste 0 979.5 1 65
2020-03-16 07:00:00 6.7 17 Oeste 40 Noroeste 0 979 0.9 63
2020-03-16 06:00:00 6.9 17 Oeste 41 Noroeste 0 978.6 0.2 62
2020-03-16 05:00:00 6.6 19 Noroeste 47 Oeste 0 978.5 0.1 63
2020-03-16 04:00:00 6.7 18 Oeste 49 Oeste 0 978.1 -0.7 62
2020-03-16 03:00:00 7.2 19 Oeste 49 Oeste 0 978.4 -1.1 56
2020-03-16 02:00:00 7.7 23 Oeste 46 Sudoeste 0 978.4 -1.6 60
2020-03-16 01:00:00 7.9 23 Oeste 40 Oeste 0 978.8 -1 64
2020-03-16 00:00:00 9.6 22 Oeste 40 Sudoeste 0 979.5 -0.3 63
2020-03-15 23:00:00 10.4 18 Oeste 42 Oeste 0 980 0.8 65
2020-03-15 22:00:00 12 23 Oeste 42 Oeste 0 979.8 1.5 66
2020-03-15 21:00:00 13 12 Sudoeste 28 Oeste 0 979.8 1.4 58
2020-03-15 20:00:00 14.4 17 Oeste 33 Oeste 0 979.2 0.4 57
2020-03-15 19:00:00 16.4 26 Oeste 51 Oeste 0 978.3 -0.3 58
2020-03-15 18:00:00 18.1 17 Oeste 39 Oeste 0 978.4 -0.9 66
2020-03-15 17:00:00 14.1 12 Sudoeste 73 Noroeste 3 978.8 -1.8 82
2020-03-15 16:00:00 19.3 11 Sudoeste 30 Oeste 0.6 978.6 -3.2 66
2020-03-15 15:00:00 22.4 8 Oeste 20 Oeste 0 979.3 -3.5 50
2020-03-15 14:00:00 21.9 7 Noroeste 19 Oeste 0 980.6 -3.1 54
2020-03-15 13:00:00 20.9 3 Oeste 10 Sudeste 0 981.8 -2.1 56
2020-03-15 12:00:00 19.1 4 Sur 11 Este 0 982.8 -1.2 58
2020-03-15 11:00:00 16.3 5 Este 12 Este 0 983.7 0.2 66
2020-03-15 10:00:00 13.2 4 Nordeste 9 Nordeste 0 983.9 0.5 80
2020-03-15 09:00:00 10.4 3 Este 10 Nordeste 0 984 0.7 92
2020-03-15 08:00:00 7 5 Nordeste 9 Nordeste 0 983.5 0.2 93
2020-03-15 07:00:00 7.3 5 Sur 10 Sudeste 0 983.4 -0.1 92
2020-03-15 06:00:00 6.9 3 Sur 5 Sur 0 983.3 -0.4 91
2020-03-15 05:00:00 7.3 2 Noroeste 5 Sudeste 0 983.3 -0.8 91
2020-03-15 04:00:00 8.4 3 Sur 9 Este 0 983.5 -0.8 91
2020-03-15 03:00:00 9.1 6 Este 10 Nordeste 0 983.7 -1 91
2020-03-15 02:00:00 9.1 4 Nordeste 8 Este 0 984.1 -0.7 89
2020-03-15 01:00:00 10.2 6 Este 8 Este 0 984.3 -0.6 88
2020-03-15 00:00:00 11 5 Norte 9 Norte 0 984.7 -0.1 85
2020-03-14 23:00:00 12.5 3 Este 6 Sudoeste 0 984.8 0.3 79
2020-03-14 22:00:00 14.1 5 Sudoeste 10 Norte 0 984.9 0.5 75
2020-03-14 21:00:00 16.1 5 Sur 6 Sur 0 984.8 0.4 66
2020-03-14 20:00:00 18.2 4 Sudoeste 6 Sudoeste 0 984.5 -0.1 58
2020-03-14 19:00:00 21.4 4 Sudoeste 9 Oeste 0 984.4 -0.5 46
2020-03-14 18:00:00 23.7 5 Oeste 10 Noroeste 0 984.4 -1.1 36
2020-03-14 17:00:00 24.3 3 Oeste 15 Oeste 0 984.6 -1.8 35
2020-03-14 16:00:00 24 2 Nordeste 13 Sudeste 0 984.9 -2.2 37
2020-03-14 15:00:00 23.3 5 Sur 15 Este 0 985.5 -2.2 40
2020-03-14 14:00:00 21.5 5 Nordeste 13 Este 0 986.4 -1.7 46
2020-03-14 13:00:00 21 7 Sudeste 18 Sudeste 0 987.1 -1.1 46
2020-03-14 12:00:00 19.6 10 Este 24 Este 0 987.7 -0.1 52
2020-03-14 11:00:00 18.1 9 Este 18 Este 0 988.1 0.8 58
2020-03-14 10:00:00 14.7 6 Este 13 Nordeste 0 988.2 1.4 80
2020-03-14 09:00:00 11.6 4 Sudeste 9 Sudeste 0 987.8 1.7 92
2020-03-14 08:00:00 8.3 4 Nordeste 17 Este 0 987.3 1.5 93
2020-03-14 07:00:00 8.3 6 Sudeste 11 Sudeste 0 986.8 1.2 92
2020-03-14 06:00:00 8.6 2 Oeste 12 Sudeste 0 986.1 0.4 91
2020-03-14 05:00:00 9.1 6 Sudeste 11 Sudeste 0 985.8 0.1 92
2020-03-14 04:00:00 9.3 8 Nordeste 12 Sudeste 0 985.6 0 91
2020-03-14 03:00:00 9.9 4 Sudeste 7 Sur 0 985.7 0.2 89
2020-03-14 02:00:00 10.7 5 Sudoeste 8 Nordeste 0 985.7 0.4 88
2020-03-14 01:00:00 11.6 3 Noroeste 7 Noroeste 0 985.6 0.9 85
2020-03-14 00:00:00 12.5 3 Sudeste 7 Nordeste 0 985.5 1.3 81
2020-03-13 23:00:00 14 0 Calma 8 Nordeste 0 985.3 1.7 76
2020-03-13 22:00:00 16.3 4 Sudoeste 12 Sudoeste 0 984.7 1.2 66
2020-03-13 21:00:00 17 8 Sudoeste 15 Sudoeste 0 984.2 0.9 63
2020-03-13 20:00:00 18 12 Sudoeste 17 Sudoeste 0 983.6 0.4 61
2020-03-13 19:00:00 19.9 7 Sudoeste 18 Oeste 0 983.5 0 57
2020-03-13 18:00:00 21.3 10 Oeste 25 Sudoeste 0 983.3 -0.4 52
2020-03-13 17:00:00 22.6 10 Oeste 24 Oeste 0 983.2 -1.3 53
2020-03-13 16:00:00 21.4 9 Oeste 24 Sudoeste 0 983.5 -1.8 57
2020-03-13 15:00:00 22.4 11 Oeste 24 Oeste 0 983.7 -2 53
2020-03-13 14:00:00 22.1 10 Oeste 23 Oeste 0 984.5 -1.4 57
2020-03-13 13:00:00 20.9 7 Oeste 18 Oeste 0 985.3 -0.5 58
2020-03-13 12:00:00 19.8 6 Oeste 15 Oeste 0 985.7 0.2 62
2020-03-13 11:00:00 17.9 5 Oeste 13 Oeste 0 985.9 0.7 66
2020-03-13 10:00:00 15.9 5 Noroeste 12 Noroeste 0 985.8 1.1 75
2020-03-13 09:00:00 11.2 2 Oeste 4 Oeste 0 985.5 1.2 90
2020-03-13 08:00:00 8.1 2 Sudeste 8 Sudeste 0 985.2 1.3 90
2020-03-13 07:00:00 8.3 2 Este 7 Este 0 984.7 0.9 89
2020-03-13 06:00:00 9.1 7 Este 9 Este 0 984.3 0.1 89
2020-03-13 05:00:00 10.9 3 Sudoeste 10 Sur 0 983.9 -0.4 86
2020-03-13 04:00:00 11.5 3 Oeste 12 Oeste 0 983.8 -0.8 83
2020-03-13 03:00:00 11.6 2 Sudoeste 7 Noroeste 0 984.2 -0.7 83
2020-03-13 02:00:00 12.7 2 Norte 10 Oeste 0 984.3 -0.6 79
2020-03-13 01:00:00 14.5 4 Oeste 13 Oeste 0 984.6 -0.1 75
2020-03-13 00:00:00 14.9 7 Oeste 14 Noroeste 0 984.9 0.5 71
2020-03-12 23:00:00 16.8 8 Oeste 16 Sudoeste 0 984.9 0.8 61
2020-03-12 22:00:00 16.1 8 Sudoeste 11 Sudoeste 0 984.7 0.6 65
2020-03-12 21:00:00 16.9 5 Sudoeste 7 Sudoeste 0 984.4 0.4 60
2020-03-12 20:00:00 19.5 4 Noroeste 8 Noroeste 0 984.1 0.3 52
2020-03-12 19:00:00 22.7 3 Oeste 15 Noroeste 0 984.1 0 39
2020-03-12 18:00:00 25.2 7 Noroeste 17 Noroeste 0 984 -0.5 38
2020-03-12 17:00:00 26.2 4 Oeste 16 Noroeste 0 983.8 -1.7 36
2020-03-12 16:00:00 26.2 4 Sudoeste 10 Este 0 984.1 -2.6 33
2020-03-12 15:00:00 25.5 4 Este 14 Nordeste 0 984.5 -2.9 40
2020-03-12 14:00:00 24 5 Este 13 Nordeste 0 985.5 -2.5 46
2020-03-12 13:00:00 22.6 5 Nordeste 18 Este 0 986.7 -1.4 49
2020-03-12 12:00:00 20.7 9 Este 21 Este 0 987.4 -0.7 56
2020-03-12 11:00:00 19.2 5 Sudeste 15 Sudeste 0 988 0.4 62
2020-03-12 10:00:00 14.9 6 Este 17 Este 0 988.1 0.8 74
2020-03-12 09:00:00 10.8 2 Este 8 Nordeste 0 988.1 1 90
2020-03-12 08:00:00 9.4 6 Este 13 Nordeste 0 987.6 0.7 92
2020-03-12 07:00:00 9.2 8 Nordeste 10 Nordeste 0 987.3 -0.1 92
2020-03-12 06:00:00 9.3 4 Norte 11 Nordeste 0 987.1 -0.6 90
2020-03-12 05:00:00 10.5 7 Nordeste 14 Nordeste 0 986.9 -1.2 90
2020-03-12 04:00:00 11.1 5 Este 12 Este 0 987.4 -1 90
2020-03-12 03:00:00 11.9 7 Este 14 Este 0 987.7 -0.9 89
2020-03-12 02:00:00 12.4 7 Este 10 Este 0 988.1 -0.8 90
2020-03-12 01:00:00 13.3 6 Este 14 Este 0 988.4 -0.4 89
2020-03-12 00:00:00 13.8 10 Este 14 Este 0 988.6 -0.1 88
2020-03-11 23:00:00 14.9 6 Este 12 Este 0 988.9 0.2 83
2020-03-11 22:00:00 15.7 7 Este 10 Este 0 988.8 0.2 81
2020-03-11 21:00:00 16.5 4 Nordeste 6 Nordeste 0 988.7 -0.2 75
2020-03-11 20:00:00 18.5 2 Sudeste 6 Sur 0 988.7 -0.4 67
2020-03-11 19:00:00 21.8 0 Calma 3 Norte 0 988.6 -0.9 55
2020-03-11 18:00:00 23.8 2 Norte 6 Oeste 0 988.9 -0.9 44
2020-03-11 17:00:00 24.4 4 Oeste 9 Oeste 0 989.1 -1.5 45
2020-03-11 16:00:00 24.2 4 Oeste 8 Oeste 0 989.5 -1.9 40
2020-03-11 15:00:00 25.1 3 Noroeste 9 Sur 0 989.8 -2.5 38
2020-03-11 14:00:00 23.9 5 Sur 12 Sudeste 0 990.6 -2.2 41
2020-03-11 13:00:00 22.2 6 Sur 13 Este 0 991.4 -1.6 51
2020-03-11 12:00:00 19.9 5 Este 15 Sudeste 0 992.3 -0.3 55
2020-03-11 11:00:00 17.2 6 Este 15 Este 0 992.8 0.6 63
2020-03-11 10:00:00 14.1 4 Nordeste 9 Este 0 993 1 72
2020-03-11 09:00:00 10.1 6 Este 10 Este 0 992.6 0.9 88
2020-03-11 08:00:00 6.8 6 Este 8 Este 0 992.2 0.7 92
2020-03-11 07:00:00 6.5 4 Este 6 Sudeste 0 992 0.2 91
2020-03-11 06:00:00 7 5 Este 6 Este 0 991.7 -0.5 90
2020-03-11 05:00:00 7.5 4 Este 5 Este 0 991.5 -0.9 90
2020-03-11 04:00:00 8 3 Este 6 Nordeste 0 991.8 -0.8 90
2020-03-11 03:00:00 8.5 2 Norte 7 Este 0 992.2 -0.9 87
2020-03-11 02:00:00 9.5 5 Sudeste 11 Este 0 992.4 -0.8 87
2020-03-11 01:00:00 10.1 7 Este 21 Este 0 992.6 -0.4 85
2020-03-11 00:00:00 11.5 4 Este 8 Oeste 0 993.1 0.4 78
2020-03-10 23:00:00 13.2 4 Noroeste 8 Noroeste 0 993.2 0.7 71
2020-03-10 22:00:00 13.9 3 Sudoeste 11 Sudoeste 0 993 0.8 68
2020-03-10 21:00:00 15.6 6 Sur 8 Oeste 0 992.7 0.6 65
2020-03-10 20:00:00 17.7 6 Oeste 7 Oeste 0 992.5 0.2 59
2020-03-10 19:00:00 21.9 3 Sudoeste 8 Oeste 0 992.2 -0.6 43
2020-03-10 18:00:00 24.1 2 Oeste 11 Noroeste 0 992.1 -1.4 37
2020-03-10 17:00:00 24 4 Oeste 14 Oeste 0 992.3 -2 34
2020-03-10 16:00:00 21.8 6 Oeste 19 Oeste 0 992.8 -2.2 40
2020-03-10 15:00:00 22.4 8 Oeste 23 Noroeste 0 993.5 -2 32
2020-03-10 14:00:00 21.3 8 Oeste 17 Oeste 0 994.3 -1.4 37
2020-03-10 13:00:00 19.8 3 Noroeste 9 Noroeste 0 995 -0.6 39
2020-03-10 12:00:00 17.6 3 Sudoeste 9 Este 0 995.5 0.3 47
2020-03-10 11:00:00 14.8 4 Nordeste 10 Nordeste 0 995.7 0.8 58
2020-03-10 10:00:00 11.9 4 Este 9 Nordeste 0 995.6 1 70
2020-03-10 09:00:00 7.5 4 Este 8 Este 0 995.2 0.9 90
2020-03-10 08:00:00 5.3 5 Este 9 Sudeste 0 994.9 0.4 91
2020-03-10 07:00:00 5.2 4 Sudeste 8 Sudeste 0 994.6 0.3 90
2020-03-10 06:00:00 5.1 3 Sur 6 Oeste 0 994.3 -0.2 90
2020-03-10 05:00:00 5.5 4 Oeste 6 Oeste 0 994.5 -0.2 89
2020-03-10 04:00:00 6.1 3 Noroeste 6 Sudoeste 0 994.3 -0.2 89
2020-03-10 03:00:00 6.4 2 Sudoeste 6 Sur 0 994.5 0.4 88
2020-03-10 02:00:00 7 4 Sudoeste 8 Oeste 0 994.7 0.7 88
2020-03-10 01:00:00 8.1 2 Sudeste 7 Nordeste 0 994.5 1.1 84
2020-03-10 00:00:00 8.9 2 Sudoeste 11 Nordeste 0 994.1 1 82